createdAt,value
2022-09-22T00:01:21.165Z,68.85
2022-09-22T00:03:53.105Z,69.56
2022-09-22T00:06:25.792Z,70.50
2022-09-22T00:09:00.500Z,71.05
2022-09-22T00:11:36.064Z,71.43
2022-09-22T00:14:27.028Z,70.80
2022-09-22T00:17:00.326Z,70.15
2022-09-22T00:19:29.934Z,69.89
2022-09-22T00:21:57.245Z,69.37
2022-09-22T00:24:26.004Z,69.33
2022-09-22T00:26:57.259Z,68.56
2022-09-22T00:29:25.043Z,68.37
2022-09-22T00:31:52.061Z,68.08
2022-09-22T00:34:21.390Z,68.21
2022-09-22T00:36:48.937Z,68.21
2022-09-22T00:39:17.092Z,68.25
2022-09-22T00:41:47.189Z,68.41
2022-09-22T00:44:42.692Z,68.01
2022-09-22T00:47:34.350Z,67.98
2022-09-22T00:50:00.810Z,67.68
2022-09-22T00:52:37.381Z,67.34
2022-09-22T00:55:08.814Z,67.59
2022-09-22T00:57:38.507Z,67.40
2022-09-22T01:00:08.114Z,67.95
2022-09-22T01:02:35.140Z,67.71
2022-09-22T01:05:01.745Z,68.51
2022-09-22T01:07:30.920Z,68.84
2022-09-22T01:09:57.953Z,68.81
2022-09-22T01:12:27.587Z,68.49
2022-09-22T01:15:10.231Z,68.40
2022-09-22T01:18:12.882Z,68.37
2022-09-22T01:20:58.026Z,68.46
2022-09-22T01:24:02.009Z,68.35
2022-09-22T01:27:03.112Z,68.06
2022-09-22T01:29:38.929Z,68.75
2022-09-22T01:32:48.686Z,68.92
2022-09-22T01:35:15.201Z,68.65
2022-09-22T01:38:05.057Z,68.65
2022-09-22T01:40:48.073Z,68.48
2022-09-22T01:43:30.492Z,68.51
2022-09-22T01:46:01.619Z,68.13
2022-09-22T01:48:33.699Z,67.97
2022-09-22T01:51:12.635Z,68.13
2022-09-22T01:53:44.113Z,68.33
2022-09-22T01:56:15.033Z,68.60
2022-09-22T01:58:49.993Z,68.56
2022-09-22T02:01:20.161Z,68.39
2022-09-22T02:04:09.663Z,68.09
2022-09-22T02:06:43.275Z,67.98
2022-09-22T02:09:14.899Z,68.01
2022-09-22T02:11:42.819Z,67.91
2022-09-22T02:14:09.796Z,67.76
2022-09-22T02:16:36.502Z,67.54
2022-09-22T02:19:13.379Z,67.69
2022-09-22T02:21:43.106Z,67.01
2022-09-22T02:24:36.245Z,67.05
2022-09-22T02:27:10.415Z,67.36
2022-09-22T02:29:43.370Z,67.19
2022-09-22T02:32:14.022Z,67.60
2022-09-22T02:34:40.905Z,67.81
2022-09-22T02:37:27.684Z,67.64
2022-09-22T02:40:04.338Z,67.40
2022-09-22T02:42:41.029Z,68.00
2022-09-22T02:45:19.934Z,68.13
2022-09-22T02:48:05.804Z,67.89
2022-09-22T02:50:34.177Z,68.12
2022-09-22T02:53:10.854Z,68.41
2022-09-22T02:55:37.610Z,68.82
2022-09-22T02:58:04.189Z,68.61
2022-09-22T03:00:31.347Z,68.21
2022-09-22T03:02:57.999Z,68.51
2022-09-22T03:05:24.682Z,68.98
2022-09-22T03:07:51.466Z,68.66
2022-09-22T03:10:18.105Z,68.75
2022-09-22T03:13:09.152Z,68.67
2022-09-22T03:15:31.974Z,68.43
2022-09-22T03:17:58.604Z,68.36
2022-09-22T03:20:25.340Z,68.71
2022-09-22T03:22:54.110Z,68.93
2022-09-22T03:25:20.846Z,69.05
2022-09-22T03:27:48.160Z,68.90
2022-09-22T03:30:15.110Z,68.81
2022-09-22T03:32:41.721Z,68.57
2022-09-22T03:35:09.001Z,68.36
2022-09-22T03:37:35.897Z,68.59
2022-09-22T03:40:03.821Z,68.73
2022-09-22T03:42:30.610Z,68.94
2022-09-22T03:44:57.185Z,69.10
2022-09-22T03:47:23.828Z,68.97
2022-09-22T03:49:50.477Z,69.36
2022-09-22T03:52:17.289Z,69.18
2022-09-22T03:54:43.877Z,69.54
2022-09-22T03:57:10.429Z,69.32
2022-09-22T03:59:36.972Z,69.21
2022-09-22T04:02:04.566Z,69.17
2022-09-22T04:04:33.910Z,69.47
2022-09-22T04:07:06.140Z,69.11
2022-09-22T04:09:33.655Z,69.22
2022-09-22T04:12:00.954Z,68.97
2022-09-22T04:14:27.684Z,69.00
2022-09-22T04:16:54.487Z,69.34
2022-09-22T04:19:21.143Z,69.38
2022-09-22T04:21:47.805Z,69.59
2022-09-22T04:24:14.454Z,69.49
2022-09-22T04:26:51.753Z,69.52
2022-09-22T04:29:27.664Z,69.24
2022-09-22T04:31:57.561Z,69.28
2022-09-22T04:34:24.268Z,69.24
2022-09-22T04:36:51.046Z,69.25
2022-09-22T04:39:22.963Z,69.52
2022-09-22T04:41:50.338Z,69.51
2022-09-22T04:44:16.912Z,70.56
2022-09-22T04:46:46.040Z,70.69
2022-09-22T04:49:39.152Z,70.27
2022-09-22T04:52:05.750Z,70.21
2022-09-22T04:54:32.572Z,69.36
2022-09-22T04:57:03.757Z,69.38
2022-09-22T04:59:32.552Z,69.17
2022-09-22T05:01:59.284Z,69.28
2022-09-22T05:04:26.130Z,69.28
2022-09-22T05:06:53.067Z,69.34
2022-09-22T05:09:20.820Z,68.99
2022-09-22T05:11:49.033Z,69.32
2022-09-22T05:14:16.099Z,69.33
2022-09-22T05:16:46.003Z,69.04
2022-09-22T05:19:12.698Z,68.93
2022-09-22T05:21:45.415Z,68.99
2022-09-22T05:24:12.237Z,68.65
2022-09-22T05:26:39.190Z,68.66
2022-09-22T05:29:08.463Z,68.44
2022-09-22T05:31:35.283Z,68.29
2022-09-22T05:34:07.484Z,67.69
2022-09-22T05:36:34.152Z,67.74
2022-09-22T05:39:00.852Z,67.34
2022-09-22T05:41:32.415Z,67.35
2022-09-22T05:43:59.056Z,67.04
2022-09-22T05:46:25.778Z,66.73
2022-09-22T05:48:52.386Z,66.72
2022-09-22T05:51:18.999Z,66.27
2022-09-22T05:53:45.628Z,65.98
2022-09-22T05:56:12.224Z,65.86
2022-09-22T05:58:39.981Z,65.86
2022-09-22T06:01:06.706Z,65.07
2022-09-22T06:03:33.438Z,64.88
2022-09-22T06:06:02.094Z,64.69
2022-09-22T06:08:28.704Z,64.76
2022-09-22T06:10:55.405Z,64.85
2022-09-22T06:13:22.024Z,64.63
2022-09-22T06:15:49.594Z,64.76
2022-09-22T06:18:23.431Z,64.19
2022-09-22T06:20:52.074Z,64.42
2022-09-22T06:23:21.514Z,64.64
2022-09-22T06:25:51.403Z,64.66
2022-09-22T06:28:18.017Z,64.55
2022-09-22T06:30:44.676Z,64.09
2022-09-22T06:33:11.733Z,63.86
2022-09-22T06:35:42.897Z,63.71
2022-09-22T06:38:14.921Z,64.12
2022-09-22T06:40:42.582Z,63.77
2022-09-22T06:43:17.137Z,63.57
2022-09-22T06:45:45.032Z,63.37
2022-09-22T06:48:12.116Z,63.67
2022-09-22T06:50:41.137Z,63.25
2022-09-22T06:53:15.065Z,62.93
2022-09-22T06:55:43.140Z,62.78
2022-09-22T06:58:11.917Z,62.41
2022-09-22T07:00:43.805Z,62.32
2022-09-22T07:03:24.494Z,62.10
2022-09-22T07:06:02.152Z,61.35
2022-09-22T07:08:31.533Z,61.05
2022-09-22T07:11:03.980Z,60.43
2022-09-22T07:13:39.865Z,60.40
2022-09-22T07:16:09.619Z,60.25
2022-09-22T07:18:40.312Z,60.56
2022-09-22T07:21:21.714Z,60.01
2022-09-22T07:23:50.116Z,59.64
2022-09-22T07:26:20.044Z,59.53
2022-09-22T07:28:50.315Z,59.59
2022-09-22T07:31:17.649Z,59.48
2022-09-22T07:33:46.347Z,59.13
2022-09-22T07:36:21.463Z,59.12
2022-09-22T07:38:50.374Z,59.36
2022-09-22T07:41:41.858Z,59.06
2022-09-22T07:44:31.957Z,58.86
2022-09-22T07:46:59.435Z,58.28
2022-09-22T07:49:26.740Z,57.80
2022-09-22T07:51:54.937Z,57.63
2022-09-22T07:54:22.599Z,57.52
2022-09-22T07:56:50.141Z,57.26
2022-09-22T07:59:16.875Z,57.59
2022-09-22T08:01:51.529Z,57.57
2022-09-22T08:04:22.680Z,58.18
2022-09-22T08:06:55.026Z,57.85
2022-09-22T08:09:26.378Z,55.61
2022-09-22T08:11:53.724Z,55.92
2022-09-22T08:14:23.512Z,55.62
2022-09-22T08:16:54.008Z,56.01
2022-09-22T08:19:23.716Z,55.28
2022-09-22T08:21:56.190Z,56.03
2022-09-22T08:24:23.503Z,54.13
2022-09-22T08:26:52.767Z,53.56
2022-09-22T08:29:20.255Z,54.89
2022-09-22T08:31:47.598Z,54.85
2022-09-22T08:34:18.596Z,55.65
2022-09-22T08:36:49.102Z,54.08
2022-09-22T08:39:17.840Z,53.57
2022-09-22T08:42:13.884Z,54.34
2022-09-22T08:45:04.022Z,53.60
2022-09-22T08:47:55.645Z,53.41
2022-09-22T08:50:49.176Z,52.13
2022-09-22T08:53:21.557Z,51.76
2022-09-22T08:55:54.510Z,52.07
2022-09-22T08:58:37.531Z,52.23
2022-09-22T09:01:43.113Z,51.41
2022-09-22T09:04:37.355Z,49.95
2022-09-22T09:07:48.278Z,49.60
2022-09-22T09:10:39.855Z,50.05
2022-09-22T09:13:21.602Z,49.84
2022-09-22T09:16:08.847Z,50.08
2022-09-22T09:18:39.381Z,50.23
2022-09-22T09:21:13.446Z,49.49
2022-09-22T09:26:39.541Z,50.37
2022-09-22T09:29:14.051Z,50.12
2022-09-22T09:31:48.858Z,51.08
2022-09-22T09:34:18.589Z,51.56
2022-09-22T09:36:52.705Z,51.23
2022-09-22T09:39:30.588Z,49.90
2022-09-22T09:41:58.420Z,48.92
2022-09-22T09:44:33.315Z,47.56
2022-09-22T09:47:24.420Z,46.70
2022-09-22T09:49:53.082Z,46.10
2022-09-22T09:52:20.244Z,44.65
2022-09-22T09:54:51.907Z,44.99
2022-09-22T09:57:31.101Z,44.85
2022-09-22T10:00:31.885Z,45.63
2022-09-22T10:03:13.746Z,47.40
2022-09-22T10:05:41.025Z,49.24
2022-09-22T10:08:26.268Z,48.89
2022-09-22T10:10:59.020Z,48.58
2022-09-22T10:13:35.604Z,48.67
2022-09-22T10:16:12.179Z,48.11
2022-09-22T10:18:40.788Z,47.74
2022-09-22T10:21:28.320Z,48.90
2022-09-22T10:24:04.321Z,48.40
2022-09-22T10:26:36.461Z,48.94
2022-09-22T10:29:12.454Z,49.18
2022-09-22T10:31:40.584Z,46.86
2022-09-22T10:34:30.850Z,46.00
2022-09-22T10:37:02.027Z,46.88
2022-09-22T10:39:52.649Z,45.97
2022-09-22T10:42:25.772Z,47.39
2022-09-22T10:44:53.330Z,48.32
2022-09-22T10:47:31.365Z,49.69
2022-09-22T10:50:38.382Z,48.13
2022-09-22T10:56:37.766Z,47.57
2022-09-22T10:59:20.137Z,45.00
2022-09-22T11:02:25.148Z,45.39
2022-09-22T11:05:49.994Z,45.28
2022-09-22T11:08:37.865Z,45.74
2022-09-22T11:11:39.809Z,45.27
2022-09-22T11:14:40.717Z,46.03
2022-09-22T11:17:22.624Z,47.53
2022-09-22T11:20:05.373Z,49.26
2022-09-22T11:22:55.157Z,49.57
2022-09-22T11:25:43.096Z,49.56
2022-09-22T11:28:33.487Z,49.79
2022-09-22T11:31:03.372Z,49.42
2022-09-22T11:33:36.067Z,49.58
2022-09-22T11:36:41.892Z,48.17
2022-09-22T11:39:51.382Z,45.12
2022-09-22T11:42:35.331Z,44.84
2022-09-22T11:45:18.045Z,45.19
2022-09-22T11:48:03.942Z,45.16
2022-09-22T11:50:39.637Z,45.65
2022-09-22T11:53:24.589Z,46.06
2022-09-22T11:56:26.685Z,44.13
2022-09-22T11:59:02.641Z,46.02
2022-09-22T12:01:37.621Z,46.73
2022-09-22T12:04:33.484Z,47.10
2022-09-22T12:07:05.225Z,47.01
2022-09-22T12:09:51.113Z,47.36
2022-09-22T12:12:23.492Z,46.80
2022-09-22T12:15:19.742Z,47.67
2022-09-22T12:17:59.804Z,48.39
2022-09-22T12:20:35.872Z,47.91
2022-09-22T12:23:28.513Z,49.98
2022-09-22T12:26:05.917Z,50.78
2022-09-22T12:28:41.752Z,50.68
2022-09-22T12:31:15.842Z,49.80
2022-09-22T12:33:58.910Z,49.13
2022-09-22T12:36:37.217Z,50.32
2022-09-22T12:39:18.846Z,50.10
2022-09-22T12:41:49.272Z,48.12
2022-09-22T12:44:28.381Z,48.03
2022-09-22T12:47:04.672Z,46.07
2022-09-22T12:49:31.438Z,46.12
2022-09-22T12:51:58.725Z,46.97
2022-09-22T12:54:26.313Z,46.28
2022-09-22T12:57:20.490Z,46.36
2022-09-22T12:59:56.677Z,45.89
2022-09-22T13:02:23.513Z,44.00
2022-09-22T13:04:59.181Z,43.96
2022-09-22T13:07:41.016Z,43.91
2022-09-22T13:10:26.681Z,43.59
2022-09-22T13:13:02.621Z,44.28
2022-09-22T13:15:34.274Z,42.80
2022-09-22T13:18:01.335Z,41.38
2022-09-22T13:20:27.998Z,41.00
2022-09-22T13:22:56.773Z,40.24
2022-09-22T13:25:28.228Z,38.11
2022-09-22T13:28:09.965Z,36.83
2022-09-22T13:30:41.054Z,36.81
2022-09-22T13:33:26.002Z,37.45
2022-09-22T13:36:01.614Z,38.17
2022-09-22T13:38:29.890Z,37.47
2022-09-22T13:40:56.610Z,37.07
2022-09-22T13:43:40.297Z,36.44
2022-09-22T13:46:23.999Z,37.72
2022-09-22T13:48:53.497Z,37.96
2022-09-22T13:51:21.195Z,39.13
2022-09-22T13:53:56.446Z,39.92
2022-09-22T13:56:25.297Z,40.08
2022-09-22T13:58:57.130Z,40.60
2022-09-22T14:01:26.795Z,41.87
2022-09-22T14:03:55.195Z,41.62
2022-09-22T14:06:25.733Z,43.36
2022-09-22T14:08:56.161Z,43.97
2022-09-22T14:11:27.504Z,43.73
2022-09-22T14:13:54.565Z,43.85
2022-09-22T14:16:28.385Z,43.24
2022-09-22T14:19:04.087Z,44.07
2022-09-22T14:21:34.254Z,44.13
2022-09-22T14:24:01.808Z,44.22
2022-09-22T14:26:34.133Z,43.86
2022-09-22T14:29:15.244Z,42.83
2022-09-22T14:31:46.102Z,43.47
2022-09-22T14:34:21.106Z,43.92
2022-09-22T14:36:50.376Z,44.60
2022-09-22T14:39:20.921Z,45.47
2022-09-22T14:41:59.665Z,44.76
2022-09-22T14:44:41.852Z,44.60
2022-09-22T14:47:21.705Z,44.09
2022-09-22T14:50:19.225Z,45.69
2022-09-22T14:53:09.864Z,46.70
2022-09-22T14:55:48.880Z,46.85
2022-09-22T14:58:24.538Z,46.72
2022-09-22T15:01:16.644Z,46.75
2022-09-22T15:04:05.535Z,46.21
2022-09-22T15:06:37.687Z,45.64
2022-09-22T15:09:05.187Z,46.88
2022-09-22T15:11:53.745Z,46.98
2022-09-22T15:14:41.537Z,47.61
2022-09-22T15:17:51.887Z,47.77
2022-09-22T15:20:19.259Z,48.03
2022-09-22T15:22:46.331Z,47.98
2022-09-22T15:25:16.597Z,47.84
2022-09-22T15:27:43.682Z,49.33
2022-09-22T15:30:16.257Z,50.15
2022-09-22T15:32:46.404Z,49.64
2022-09-22T15:35:13.494Z,49.04
2022-09-22T15:37:42.641Z,50.09
2022-09-22T15:40:16.638Z,49.70
2022-09-22T15:43:08.702Z,49.96
2022-09-22T15:45:33.952Z,49.12
2022-09-22T15:48:01.527Z,48.94
2022-09-22T15:50:30.436Z,49.00
2022-09-22T15:52:57.089Z,49.70
2022-09-22T15:55:26.132Z,49.94
2022-09-22T15:57:56.742Z,49.96
2022-09-22T16:00:27.545Z,49.56
2022-09-22T16:02:54.665Z,49.31
2022-09-22T16:05:21.402Z,49.46
2022-09-22T16:07:52.985Z,50.35
2022-09-22T16:10:23.902Z,50.48
2022-09-22T16:12:50.671Z,50.79
2022-09-22T16:15:17.543Z,50.68
2022-09-22T16:17:45.935Z,50.79
2022-09-22T16:20:15.959Z,51.61
2022-09-22T16:22:44.936Z,51.58
2022-09-22T16:25:12.521Z,51.15
2022-09-22T16:27:39.182Z,50.85
2022-09-22T16:30:06.552Z,51.58
2022-09-22T16:32:36.130Z,52.24
2022-09-22T16:35:03.741Z,52.42
2022-09-22T16:37:30.377Z,53.41
2022-09-22T16:39:59.798Z,53.53
2022-09-22T16:42:26.472Z,53.84
2022-09-22T16:44:53.301Z,53.86
2022-09-22T16:47:21.149Z,54.64
2022-09-22T16:49:49.505Z,55.14
2022-09-22T16:52:16.107Z,56.00
2022-09-22T16:54:42.770Z,56.50
2022-09-22T16:57:09.388Z,57.67
2022-09-22T16:59:38.192Z,58.46
2022-09-22T17:02:04.974Z,58.52
2022-09-22T17:04:32.307Z,60.26
2022-09-22T17:07:02.013Z,60.13
2022-09-22T17:09:31.598Z,59.82
2022-09-22T17:11:58.114Z,59.86
2022-09-22T17:14:25.485Z,60.08
2022-09-22T17:16:55.338Z,59.95
2022-09-22T17:19:27.663Z,59.66
2022-09-22T17:21:55.592Z,59.46
2022-09-22T17:24:25.708Z,59.15
2022-09-22T17:26:57.541Z,59.18
2022-09-22T17:29:26.773Z,59.52
2022-09-22T17:32:02.649Z,59.92
2022-09-22T17:34:32.870Z,59.41
2022-09-22T17:37:00.436Z,60.00
2022-09-22T17:39:28.752Z,60.22
2022-09-22T17:41:55.887Z,60.39
2022-09-22T17:44:23.149Z,60.33
2022-09-22T17:47:12.209Z,60.87
2022-09-22T17:49:58.162Z,60.72
2022-09-22T17:52:40.181Z,60.62
2022-09-22T17:55:20.218Z,60.74
2022-09-22T17:57:46.889Z,61.05
2022-09-22T18:00:17.497Z,61.34
2022-09-22T18:02:45.005Z,61.19
2022-09-22T18:05:14.789Z,61.25
2022-09-22T18:07:42.310Z,61.29
2022-09-22T18:10:12.267Z,61.25
2022-09-22T18:12:38.988Z,61.67
2022-09-22T18:15:12.794Z,61.58
2022-09-22T18:17:44.061Z,61.59
2022-09-22T18:20:18.262Z,61.79
2022-09-22T18:22:47.819Z,61.46
2022-09-22T18:25:16.532Z,61.53
2022-09-22T18:27:43.476Z,61.43
2022-09-22T18:30:13.163Z,61.34
2022-09-22T18:32:44.859Z,61.70
2022-09-22T18:35:12.821Z,61.70
2022-09-22T18:37:42.498Z,61.91
2022-09-22T18:40:10.131Z,61.69
2022-09-22T18:42:36.877Z,61.90
2022-09-22T18:45:04.128Z,61.63
2022-09-22T18:47:30.926Z,61.80
2022-09-22T18:49:58.266Z,61.89
2022-09-22T18:52:25.523Z,61.29
2022-09-22T18:54:55.774Z,61.71
2022-09-22T18:57:25.579Z,61.20
2022-09-22T18:59:53.838Z,61.80
2022-09-22T19:02:21.408Z,61.74
2022-09-22T19:04:49.055Z,61.75
2022-09-22T19:07:37.761Z,61.91
2022-09-22T19:10:10.007Z,61.81
2022-09-22T19:12:39.291Z,61.83
2022-09-22T19:15:09.345Z,61.97
2022-09-22T19:17:40.740Z,61.70
2022-09-22T19:20:08.065Z,61.63
2022-09-22T19:22:35.089Z,61.70
2022-09-22T19:25:04.227Z,61.80
2022-09-22T19:27:33.230Z,61.74
2022-09-22T19:30:00.005Z,61.57
2022-09-22T19:32:26.662Z,61.83
2022-09-22T19:34:54.839Z,61.68
2022-09-22T19:37:21.575Z,61.64
2022-09-22T19:39:50.825Z,61.75
2022-09-22T19:42:18.686Z,61.70
2022-09-22T19:44:45.278Z,61.61
2022-09-22T19:47:11.930Z,61.35
2022-09-22T19:49:38.542Z,61.65
2022-09-22T19:52:05.170Z,61.79
2022-09-22T19:54:31.745Z,61.44
2022-09-22T19:56:59.165Z,61.50
2022-09-22T19:59:25.826Z,61.33
2022-09-22T20:01:55.029Z,61.40
2022-09-22T20:04:23.414Z,61.58
2022-09-22T20:06:50.162Z,61.36
2022-09-22T20:09:19.435Z,61.34
2022-09-22T20:11:48.843Z,61.70
2022-09-22T20:14:27.177Z,61.34
2022-09-22T20:16:56.969Z,61.69
2022-09-22T20:19:25.866Z,61.40
2022-09-22T20:21:53.267Z,61.38
2022-09-22T20:24:22.021Z,61.69
2022-09-22T20:26:48.771Z,61.40
2022-09-22T20:29:21.176Z,61.64
2022-09-22T20:31:47.959Z,61.74
2022-09-22T20:34:15.362Z,61.83
2022-09-22T20:36:44.851Z,61.61
2022-09-22T20:39:20.093Z,61.90
2022-09-22T20:41:46.684Z,61.99
2022-09-22T20:44:16.757Z,62.10
2022-09-22T20:46:47.873Z,61.83
2022-09-22T20:49:15.143Z,62.05
2022-09-22T20:51:42.393Z,62.14
2022-09-22T20:54:09.164Z,61.88
2022-09-22T20:56:39.436Z,62.19
2022-09-22T20:59:08.680Z,61.85
2022-09-22T21:01:35.410Z,61.64
2022-09-22T21:04:02.132Z,61.58
2022-09-22T21:06:30.824Z,61.68
2022-09-22T21:09:16.205Z,61.76
2022-09-22T21:11:44.141Z,61.44
2022-09-22T21:14:11.907Z,61.44
2022-09-22T21:16:41.110Z,61.85
2022-09-22T21:19:09.977Z,61.84
2022-09-22T21:21:39.326Z,61.76
2022-09-22T21:24:11.032Z,61.29
2022-09-22T21:26:40.037Z,61.18
2022-09-22T21:29:10.181Z,61.54
2022-09-22T21:31:37.343Z,61.25
2022-09-22T21:34:04.302Z,61.47
2022-09-22T21:36:31.035Z,61.06
2022-09-22T21:38:59.604Z,60.92
2022-09-22T21:41:28.870Z,60.84
2022-09-22T21:43:57.227Z,60.83
2022-09-22T21:46:29.603Z,60.79
2022-09-22T21:48:59.311Z,60.86
2022-09-22T21:51:25.963Z,61.02
2022-09-22T21:53:53.772Z,60.99
2022-09-22T21:56:22.542Z,60.70
2022-09-22T21:58:51.474Z,60.41
2022-09-22T22:01:25.320Z,60.57
2022-09-22T22:03:53.761Z,60.62
2022-09-22T22:06:51.977Z,60.33
2022-09-22T22:09:22.639Z,59.90
2022-09-22T22:11:57.981Z,60.09
2022-09-22T22:14:26.493Z,59.85
2022-09-22T22:16:54.741Z,59.74
2022-09-22T22:19:24.830Z,59.69
2022-09-22T22:21:51.903Z,59.41
2022-09-22T22:24:24.444Z,59.08
2022-09-22T22:26:51.679Z,59.43
2022-09-22T22:29:19.479Z,59.30
2022-09-22T22:31:48.914Z,59.60
2022-09-22T22:34:17.473Z,59.78
2022-09-22T22:36:44.438Z,60.12
2022-09-22T22:39:12.160Z,60.26
2022-09-22T22:41:40.450Z,60.68
2022-09-22T22:44:08.314Z,60.49
2022-09-22T22:46:35.445Z,60.56
2022-09-22T22:49:02.186Z,60.75
2022-09-22T22:51:28.784Z,60.74
2022-09-22T22:53:55.732Z,60.54
2022-09-22T22:56:26.636Z,60.77
2022-09-22T22:58:53.732Z,61.11
2022-09-22T23:01:28.869Z,61.19
2022-09-22T23:04:07.099Z,61.33
2022-09-22T23:06:39.486Z,61.47
2022-09-22T23:09:08.279Z,61.75
2022-09-22T23:11:37.653Z,61.87
2022-09-22T23:14:07.272Z,61.99
2022-09-22T23:16:40.180Z,62.12
2022-09-22T23:19:10.494Z,62.23
2022-09-22T23:21:37.144Z,62.30
2022-09-22T23:24:05.396Z,63.07
2022-09-22T23:26:32.166Z,62.71
2022-09-22T23:28:59.472Z,62.46
2022-09-22T23:31:26.310Z,62.16
2022-09-22T23:33:53.513Z,62.24
2022-09-22T23:36:28.142Z,62.12
2022-09-22T23:38:56.743Z,62.26
2022-09-22T23:41:23.613Z,62.28
2022-09-22T23:43:50.700Z,62.10
2022-09-22T23:46:17.435Z,62.02
2022-09-22T23:48:44.168Z,62.45
2022-09-22T23:51:10.725Z,62.39
2022-09-22T23:53:37.637Z,62.31
2022-09-22T23:56:06.331Z,62.36
2022-09-22T23:58:33.438Z,62.49
